Time;durP1;ratioP1;P1;durP2;ratioP2;P2;SDS_P1;SDS_P2;PMS_P1;PMS_P2;Temp;Humidity;BMP_temperature;BMP_pressure;BME280_temperature;BME280_humidity;BME280_pressure;Samples;Min_cycle;Max_cycle;Signal;HPM_P1;HPM_P2
2021/10/21 00:01:15;;;;;;;17.25;4.80;;;;;;;;;;5018542;28;20218;-73
2021/10/21 00:03:40;;;;;;;13.85;4.35;;;;;;;;;;5026279;28;20507;-72
2021/10/21 00:06:05;;;;;;;23.83;5.22;;;;;;;;;;5018808;28;20209;-78
2021/10/21 00:08:31;;;;;;;20.30;5.13;;;;;;;;;;5027345;28;20213;-77
2021/10/21 00:10:56;;;;;;;15.75;4.75;;;;;;;;;;5029195;28;20193;-75
2021/10/21 00:13:23;;;;;;;18.05;5.07;;;;;;;;;;5018344;28;20208;-74
2021/10/21 00:15:48;;;;;;;18.45;5.32;;;;;;;;;;5026671;28;20255;-74
2021/10/21 00:18:14;;;;;;;17.25;5.32;;;;;;;;;;5015613;28;20213;-74
2021/10/21 00:20:39;;;;;;;16.90;5.70;;;;;;;;;;5021262;28;20289;-73
2021/10/21 00:23:04;;;;;;;12.77;5.63;;;;;;;;;;5013267;28;20334;-74
2021/10/21 00:25:30;;;;;;;13.02;5.63;;;;;;;;;;5024751;28;20197;-74
2021/10/21 00:27:56;;;;;;;11.95;5.82;;;;;;;;;;5017370;28;20249;-72
2021/10/21 00:30:21;;;;;;;13.43;6.03;;;;;;;;;;5024257;28;21197;-72
2021/10/21 00:32:46;;;;;;;10.73;5.18;;;;;;;;;;5017189;28;20182;-72
2021/10/21 00:35:12;;;;;;;11.45;4.93;;;;;;;;;;5019846;28;20382;-72
2021/10/21 00:37:38;;;;;;;12.10;5.53;;;;;;;;;;5018252;28;20276;-71
2021/10/21 00:40:04;;;;;;;13.90;5.65;;;;;;;;;;5026109;28;20190;-71
2021/10/21 00:42:30;;;;;;;14.50;6.05;;;;;;;;;;5017940;28;20739;-71
2021/10/21 00:44:56;;;;;;;15.95;7.28;;;;;;;;;;5022782;28;20198;-71
2021/10/21 00:47:21;;;;;;;24.60;6.50;;;;;;;;;;5024863;28;20190;-71
2021/10/21 00:49:47;;;;;;;16.30;7.78;;;;;;;;;;5014983;28;20203;-71
2021/10/21 00:52:12;;;;;;;17.85;7.82;;;;;;;;;;5022712;28;20522;-72
2021/10/21 00:54:38;;;;;;;16.60;7.72;;;;;;;;;;5013442;28;20630;-74
2021/10/21 00:57:05;;;;;;;20.13;7.78;;;;;;;;;;5027707;28;20206;-72
2021/10/21 00:59:32;;;;;;;19.02;8.40;;;;;;;;;;5014310;28;20190;-72
2021/10/21 01:01:58;;;;;;;25.10;10.10;;;;;;;;;;5023462;28;20222;-77
2021/10/21 01:04:24;;;;;;;22.48;9.38;;;;;;;;;;5015614;28;20565;-74
2021/10/21 01:06:49;;;;;;;17.27;9.30;;;;;;;;;;5025778;28;20181;-75
2021/10/21 01:09:17;;;;;;;22.58;10.15;;;;;;;;;;5016703;28;20214;-76
2021/10/21 01:11:43;;;;;;;23.52;10.98;;;;;;;;;;5025242;28;20210;-74
2021/10/21 01:14:09;;;;;;;21.55;10.25;;;;;;;;;;5014629;28;20256;-72
2021/10/21 01:16:39;;;;;;;28.30;9.98;;;;;;;;;;5025955;28;20200;-72
2021/10/21 01:19:14;;;;;;;21.95;11.07;;;;;;;;;;5021790;28;20188;-74
2021/10/21 01:21:39;;;;;;;17.95;11.07;;;;;;;;;;5022880;28;20193;-74
2021/10/21 01:24:04;;;;;;;20.45;11.68;;;;;;;;;;5023855;28;20186;-72
2021/10/21 01:26:30;;;;;;;21.55;11.45;;;;;;;;;;5017515;28;20194;-72
2021/10/21 01:28:55;;;;;;;21.25;11.48;;;;;;;;;;5021897;28;20220;-72
2021/10/21 01:31:20;;;;;;;21.67;10.48;;;;;;;;;;5016925;28;20646;-72
2021/10/21 01:33:46;;;;;;;19.00;8.95;;;;;;;;;;5024806;28;20185;-73
2021/10/21 01:36:12;;;;;;;14.13;7.72;;;;;;;;;;5013515;28;20201;-74
2021/10/21 01:38:38;;;;;;;14.45;8.77;;;;;;;;;;5026238;28;20248;-74
2021/10/21 01:41:03;;;;;;;15.10;7.57;;;;;;;;;;5016909;28;20201;-76
2021/10/21 01:43:28;;;;;;;11.55;5.68;;;;;;;;;;5022328;28;20265;-71
2021/10/21 01:45:54;;;;;;;8.60;4.57;;;;;;;;;;5018964;28;20217;-74
2021/10/21 01:48:19;;;;;;;8.18;3.88;;;;;;;;;;5021296;28;20225;-73
2021/10/21 01:50:45;;;;;;;6.07;3.80;;;;;;;;;;5024580;28;20196;-74
2021/10/21 01:53:11;;;;;;;8.40;3.20;;;;;;;;;;5008938;28;20189;-73
2021/10/21 01:55:37;;;;;;;6.22;2.70;;;;;;;;;;5022399;28;20182;-74
2021/10/21 01:58:02;;;;;;;5.75;2.83;;;;;;;;;;5013829;28;20221;-73
2021/10/21 02:00:27;;;;;;;5.95;2.55;;;;;;;;;;5021696;28;20228;-72
2021/10/21 02:02:53;;;;;;;3.35;2.20;;;;;;;;;;5015083;28;20188;-72
2021/10/21 02:05:19;;;;;;;4.53;2.38;;;;;;;;;;5024272;28;20194;-73
2021/10/21 02:07:45;;;;;;;7.50;2.17;;;;;;;;;;5015939;28;20194;-74
2021/10/21 02:10:12;;;;;;;4.05;1.90;;;;;;;;;;5021155;28;20246;-73
2021/10/21 02:12:38;;;;;;;4.95;1.90;;;;;;;;;;5015806;28;20204;-72
2021/10/21 02:15:04;;;;;;;4.18;1.92;;;;;;;;;;5025468;28;20194;-73
2021/10/21 02:17:30;;;;;;;2.45;1.60;;;;;;;;;;5008810;28;20541;-73
2021/10/21 02:19:55;;;;;;;3.15;1.63;;;;;;;;;;5023136;28;20193;-73
2021/10/21 02:22:20;;;;;;;5.38;1.52;;;;;;;;;;5021140;28;20312;-73
2021/10/21 02:24:46;;;;;;;6.13;1.10;;;;;;;;;;5015394;28;20289;-73
2021/10/21 02:27:12;;;;;;;5.90;1.40;;;;;;;;;;5025062;28;21697;-72
2021/10/21 02:29:37;;;;;;;3.85;0.85;;;;;;;;;;5016542;28;20218;-74
2021/10/21 02:32:03;;;;;;;5.00;0.93;;;;;;;;;;5027058;28;20194;-74
2021/10/21 02:34:28;;;;;;;5.22;1.40;;;;;;;;;;5013676;28;20197;-74
2021/10/21 02:36:54;;;;;;;3.13;0.65;;;;;;;;;;5020856;28;20677;-74
2021/10/21 02:39:19;;;;;;;4.10;0.93;;;;;;;;;;5015462;28;20360;-76
2021/10/21 02:41:44;;;;;;;1.73;0.57;;;;;;;;;;5026728;28;20194;-74
2021/10/21 02:44:10;;;;;;;1.90;0.70;;;;;;;;;;5020369;28;20221;-74
2021/10/21 02:46:35;;;;;;;5.65;0.80;;;;;;;;;;5024963;28;20264;-74
2021/10/21 02:49:01;;;;;;;1.33;0.80;;;;;;;;;;5021086;28;20217;-72
2021/10/21 02:51:26;;;;;;;3.00;0.73;;;;;;;;;;5021581;28;20392;-74
2021/10/21 02:53:52;;;;;;;3.30;0.70;;;;;;;;;;5030279;28;20323;-73
2021/10/21 02:56:18;;;;;;;4.20;0.80;;;;;;;;;;5020788;28;20300;-72
2021/10/21 02:58:43;;;;;;;4.88;0.90;;;;;;;;;;5030170;28;20869;-73
2021/10/21 03:01:08;;;;;;;7.82;1.10;;;;;;;;;;5016402;28;20256;-74
2021/10/21 03:03:34;;;;;;;1.95;0.90;;;;;;;;;;5023854;28;20178;-74
2021/10/21 03:05:59;;;;;;;6.78;0.80;;;;;;;;;;5017548;28;20190;-74
2021/10/21 03:08:25;;;;;;;3.60;0.88;;;;;;;;;;5029841;28;20546;-73
2021/10/21 03:10:50;;;;;;;3.03;0.80;;;;;;;;;;5018423;28;20646;-73
2021/10/21 03:13:15;;;;;;;4.50;0.95;;;;;;;;;;5027815;28;20670;-73
2021/10/21 03:15:41;;;;;;;3.03;1.13;;;;;;;;;;5017416;28;21032;-73
2021/10/21 03:18:06;;;;;;;2.70;1.08;;;;;;;;;;5027848;28;20631;-74
2021/10/21 03:20:34;;;;;;;2.50;0.70;;;;;;;;;;5022433;28;20186;-73
2021/10/21 03:23:00;;;;;;;2.42;1.02;;;;;;;;;;5020577;28;20704;-74
2021/10/21 03:25:25;;;;;;;4.78;1.00;;;;;;;;;;5025442;28;20330;-72
2021/10/21 03:27:51;;;;;;;4.75;0.90;;;;;;;;;;5019294;28;20569;-73
2021/10/21 03:30:16;;;;;;;2.33;0.70;;;;;;;;;;5024288;28;20202;-74
2021/10/21 03:32:41;;;;;;;4.95;0.95;;;;;;;;;;5016961;28;20274;-73
2021/10/21 03:35:07;;;;;;;5.85;1.08;;;;;;;;;;5026441;28;20186;-74
2021/10/21 03:37:33;;;;;;;1.83;0.60;;;;;;;;;;5019459;28;20271;-74
2021/10/21 03:39:59;;;;;;;8.35;0.93;;;;;;;;;;5026867;28;20576;-72
2021/10/21 03:42:24;;;;;;;8.07;0.90;;;;;;;;;;5018559;28;20594;-74
2021/10/21 03:44:50;;;;;;;9.40;0.75;;;;;;;;;;5022310;28;20194;-75
2021/10/21 03:47:16;;;;;;;3.13;1.00;;;;;;;;;;5018509;28;20194;-73
2021/10/21 03:49:42;;;;;;;3.08;0.88;;;;;;;;;;5025355;28;20241;-72
2021/10/21 03:52:07;;;;;;;4.07;0.70;;;;;;;;;;5020768;28;20223;-70
2021/10/21 03:54:33;;;;;;;8.52;0.80;;;;;;;;;;5020106;28;20221;-74
2021/10/21 03:56:59;;;;;;;3.17;0.77;;;;;;;;;;5023645;28;20219;-73
2021/10/21 03:59:24;;;;;;;5.68;0.73;;;;;;;;;;5018351;28;20241;-76
2021/10/21 04:01:53;;;;;;;7.93;0.90;;;;;;;;;;5024568;28;20260;-76
2021/10/21 04:04:18;;;;;;;6.38;0.95;;;;;;;;;;5013937;28;20618;-74
2021/10/21 04:06:43;;;;;;;4.40;0.57;;;;;;;;;;5023976;28;20201;-75
2021/10/21 04:09:09;;;;;;;4.88;0.70;;;;;;;;;;5019360;28;20212;-74
2021/10/21 04:11:34;;;;;;;7.38;0.80;;;;;;;;;;5023204;28;20508;-74
2021/10/21 04:14:00;;;;;;;2.38;0.60;;;;;;;;;;5022112;28;20249;-75
2021/10/21 04:16:26;;;;;;;3.47;0.68;;;;;;;;;;5026333;28;20178;-75
2021/10/21 04:18:51;;;;;;;6.53;1.00;;;;;;;;;;5016371;28;20186;-74
2021/10/21 04:21:17;;;;;;;3.03;0.50;;;;;;;;;;5026257;28;20482;-75
2021/10/21 04:23:42;;;;;;;5.25;0.90;;;;;;;;;;5016370;28;20216;-74
2021/10/21 04:26:07;;;;;;;4.75;0.82;;;;;;;;;;5026880;28;20673;-73
2021/10/21 04:28:33;;;;;;;5.75;0.82;;;;;;;;;;5021552;28;20333;-74
2021/10/21 04:30:59;;;;;;;6.43;0.90;;;;;;;;;;5015824;28;20190;-73
2021/10/21 04:33:24;;;;;;;8.90;0.90;;;;;;;;;;5023119;28;20280;-75
2021/10/21 04:35:50;;;;;;;7.07;0.90;;;;;;;;;;5016174;28;20198;-73
2021/10/21 04:38:15;;;;;;;6.32;1.25;;;;;;;;;;5022412;28;20248;-74
2021/10/21 04:40:41;;;;;;;9.15;1.02;;;;;;;;;;5015540;28;20266;-74
2021/10/21 04:43:06;;;;;;;5.53;0.93;;;;;;;;;;5023630;28;20197;-74
2021/10/21 04:45:32;;;;;;;5.10;1.00;;;;;;;;;;5012474;28;20201;-75
2021/10/21 04:47:57;;;;;;;6.25;1.05;;;;;;;;;;5025641;28;20190;-73
2021/10/21 04:50:24;;;;;;;7.78;0.80;;;;;;;;;;5015142;28;20198;-74
2021/10/21 04:52:52;;;;;;;6.75;1.10;;;;;;;;;;5018702;28;20182;-73
2021/10/21 04:55:22;;;;;;;5.13;0.80;;;;;;;;;;5015928;28;20182;-73
2021/10/21 04:57:48;;;;;;;8.82;1.20;;;;;;;;;;5025477;28;20226;-73
2021/10/21 05:00:14;;;;;;;6.28;0.98;;;;;;;;;;5024053;28;20654;-75
2021/10/21 05:02:40;;;;;;;4.38;0.82;;;;;;;;;;5015936;28;20225;-77
2021/10/21 05:05:05;;;;;;;5.25;1.13;;;;;;;;;;5022917;28;20185;-74
2021/10/21 05:07:31;;;;;;;7.35;1.30;;;;;;;;;;5016265;28;20285;-74
2021/10/21 05:09:56;;;;;;;4.85;1.02;;;;;;;;;;5025904;28;20206;-73
2021/10/21 05:12:22;;;;;;;5.60;0.95;;;;;;;;;;5016728;28;20670;-75
2021/10/21 05:14:47;;;;;;;3.92;1.05;;;;;;;;;;5024107;28;20273;-75
2021/10/21 05:17:12;;;;;;;5.57;1.20;;;;;;;;;;5008574;28;20248;-74
2021/10/21 05:19:38;;;;;;;3.42;0.90;;;;;;;;;;5023908;28;20174;-75
2021/10/21 05:22:03;;;;;;;4.55;0.90;;;;;;;;;;5015944;28;20659;-73
2021/10/21 05:24:28;;;;;;;3.67;1.08;;;;;;;;;;5025117;28;20259;-75
2021/10/21 05:26:54;;;;;;;5.10;1.05;;;;;;;;;;5014708;28;20194;-74
2021/10/21 05:29:20;;;;;;;5.47;1.15;;;;;;;;;;5020519;28;20218;-75
2021/10/21 05:31:45;;;;;;;3.33;0.85;;;;;;;;;;5023021;28;20616;-73
2021/10/21 05:34:11;;;;;;;4.70;0.93;;;;;;;;;;5015462;28;20217;-72
2021/10/21 05:36:37;;;;;;;4.22;0.90;;;;;;;;;;5027322;28;20243;-74
2021/10/21 05:39:02;;;;;;;7.38;1.40;;;;;;;;;;5015174;28;21507;-74
2021/10/21 05:41:28;;;;;;;4.15;1.00;;;;;;;;;;5022443;28;20182;-73
2021/10/21 05:43:54;;;;;;;8.45;1.10;;;;;;;;;;5014465;28;20194;-73
2021/10/21 05:46:20;;;;;;;12.85;2.38;;;;;;;;;;5021057;28;20193;-74
2021/10/21 05:48:45;;;;;;;5.03;1.17;;;;;;;;;;5011558;28;20687;-72
2021/10/21 05:51:11;;;;;;;6.18;1.55;;;;;;;;;;5021215;28;20624;-74
2021/10/21 05:53:36;;;;;;;32.38;2.75;;;;;;;;;;5014561;28;20269;-80
2021/10/21 05:56:01;;;;;;;4.45;0.65;;;;;;;;;;5021455;28;20198;-78
2021/10/21 05:58:27;;;;;;;2.22;0.40;;;;;;;;;;5015924;28;20240;-77
2021/10/21 06:00:52;;;;;;;2.38;0.30;;;;;;;;;;5023356;28;20295;-75
2021/10/21 06:03:17;;;;;;;2.10;0.50;;;;;;;;;;5024535;28;20293;-77
2021/10/21 06:05:43;;;;;;;4.97;0.50;;;;;;;;;;5015925;28;20204;-76
2021/10/21 06:08:08;;;;;;;1.83;0.70;;;;;;;;;;5019347;28;20205;-77
2021/10/21 06:10:33;;;;;;;3.78;0.60;;;;;;;;;;5015781;28;20217;-76
2021/10/21 06:13:01;;;;;;;1.67;0.85;;;;;;;;;;5024084;28;20687;-77
2021/10/21 06:15:26;;;;;;;3.80;0.70;;;;;;;;;;5012695;28;20182;-73
2021/10/21 06:17:52;;;;;;;1.90;0.75;;;;;;;;;;5020907;28;20285;-74
2021/10/21 06:20:17;;;;;;;4.47;0.70;;;;;;;;;;4315772;28;10000858;-72
2021/10/21 06:22:43;;;;;;;4.55;0.95;;;;;;;;;;5019019;28;20467;-73
2021/10/21 06:25:10;;;;;;;4.70;1.23;;;;;;;;;;5011519;28;20210;-73
2021/10/21 06:27:37;;;;;;;3.47;0.80;;;;;;;;;;5021045;28;20720;-75
2021/10/21 06:30:03;;;;;;;2.50;0.70;;;;;;;;;;5010183;28;20214;-73
2021/10/21 06:32:29;;;;;;;2.50;0.57;;;;;;;;;;5017346;28;20551;-74
2021/10/21 06:34:54;;;;;;;2.55;0.45;;;;;;;;;;5020917;28;20206;-72
2021/10/21 06:37:20;;;;;;;2.00;0.45;;;;;;;;;;5008758;28;20185;-72
2021/10/21 06:39:53;;;;;;;3.47;0.40;;;;;;;;;;5020900;28;20186;-72
2021/10/21 06:42:19;;;;;;;2.03;0.40;;;;;;;;;;5010861;28;20655;-70
2021/10/21 06:44:45;;;;;;;3.70;0.50;;;;;;;;;;5019256;28;20583;-71
2021/10/21 06:47:10;;;;;;;3.38;0.60;;;;;;;;;;5012594;28;20193;-71
2021/10/21 06:49:35;;;;;;;4.53;0.60;;;;;;;;;;5021081;28;20237;-71
2021/10/21 06:52:01;;;;;;;3.90;0.60;;;;;;;;;;5008366;28;20652;-70
2021/10/21 06:54:26;;;;;;;2.63;0.30;;;;;;;;;;5014767;28;20187;-70
2021/10/21 06:56:51;;;;;;;4.60;0.70;;;;;;;;;;5009980;28;20206;-70
2021/10/21 06:59:17;;;;;;;3.03;0.60;;;;;;;;;;5013972;28;20166;-72
2021/10/21 07:01:42;;;;;;;2.53;0.50;;;;;;;;;;5013324;28;20319;-69
2021/10/21 07:04:08;;;;;;;3.13;0.65;;;;;;;;;;5018863;28;20182;-69
2021/10/21 07:06:34;;;;;;;5.38;0.30;;;;;;;;;;5019077;28;20825;-73
2021/10/21 07:08:59;;;;;;;3.87;0.50;;;;;;;;;;5010694;28;20222;-69
2021/10/21 07:11:24;;;;;;;4.10;0.67;;;;;;;;;;5018384;28;20185;-69
2021/10/21 07:13:50;;;;;;;4.25;0.50;;;;;;;;;;5009800;28;20537;-71
2021/10/21 07:16:15;;;;;;;7.90;0.90;;;;;;;;;;5017098;28;20201;-69
2021/10/21 07:18:41;;;;;;;10.23;0.85;;;;;;;;;;5014047;28;20194;-75
2021/10/21 07:21:08;;;;;;;4.18;0.85;;;;;;;;;;5021724;28;20198;-70
2021/10/21 07:23:33;;;;;;;8.98;1.15;;;;;;;;;;5012900;28;20182;-70
2021/10/21 07:25:58;;;;;;;6.55;0.90;;;;;;;;;;5022326;28;20665;-70
2021/10/21 07:28:24;;;;;;;7.65;0.90;;;;;;;;;;5015558;28;20205;-71
2021/10/21 07:30:53;;;;;;;5.65;1.17;;;;;;;;;;5020156;28;20191;-71
2021/10/21 07:33:19;;;;;;;9.40;0.90;;;;;;;;;;5014826;28;20186;-76
2021/10/21 07:35:44;;;;;;;7.60;0.95;;;;;;;;;;5019235;28;20240;-72
2021/10/21 07:38:10;;;;;;;10.23;2.28;;;;;;;;;;5020910;28;20304;-70
2021/10/21 07:40:35;;;;;;;10.65;2.08;;;;;;;;;;5017207;28;20190;-71
2021/10/21 07:43:01;;;;;;;11.93;1.30;;;;;;;;;;5020705;28;20260;-71
2021/10/21 07:45:26;;;;;;;9.45;1.50;;;;;;;;;;5017225;28;20193;-70
2021/10/21 07:47:51;;;;;;;12.43;1.48;;;;;;;;;;5020073;28;20213;-69
2021/10/21 07:50:18;;;;;;;8.93;1.30;;;;;;;;;;5016828;28;20218;-70
2021/10/21 07:52:45;;;;;;;7.20;1.00;;;;;;;;;;5022157;28;20725;-70
2021/10/21 07:55:11;;;;;;;10.80;1.67;;;;;;;;;;5011924;28;20660;-71
2021/10/21 07:57:36;;;;;;;6.95;1.30;;;;;;;;;;5020844;28;21843;-70
2021/10/21 08:00:04;;;;;;;10.32;1.60;;;;;;;;;;5011807;28;20222;-70
2021/10/21 08:02:29;;;;;;;10.38;1.55;;;;;;;;;;5022747;28;20226;-70
2021/10/21 08:04:55;;;;;;;12.65;1.98;;;;;;;;;;5018055;28;20245;-69
2021/10/21 08:07:20;;;;;;;7.63;1.20;;;;;;;;;;5020975;28;20200;-69
2021/10/21 08:09:46;;;;;;;11.23;1.50;;;;;;;;;;5021332;28;20661;-74
2021/10/21 08:12:11;;;;;;;11.70;2.05;;;;;;;;;;5010640;28;20578;-72
2021/10/21 08:14:37;;;;;;;8.93;1.80;;;;;;;;;;5025014;28;20240;-72
2021/10/21 08:17:02;;;;;;;6.72;1.70;;;;;;;;;;5008840;28;20315;-71
2021/10/21 08:19:29;;;;;;;10.93;1.70;;;;;;;;;;5019233;28;20233;-68
2021/10/21 08:21:55;;;;;;;11.63;1.65;;;;;;;;;;5010734;28;20190;-71
2021/10/21 08:24:21;;;;;;;7.22;1.00;;;;;;;;;;5017327;28;20208;-69
2021/10/21 08:26:48;;;;;;;14.40;1.30;;;;;;;;;;5013304;28;20194;-72
2021/10/21 08:29:14;;;;;;;9.13;1.50;;;;;;;;;;5018896;28;20296;-73
2021/10/21 08:31:40;;;;;;;10.23;1.52;;;;;;;;;;5009336;28;20198;-70
2021/10/21 08:34:05;;;;;;;6.28;1.42;;;;;;;;;;5016467;28;20614;-73
2021/10/21 08:36:30;;;;;;;12.55;2.50;;;;;;;;;;5007916;28;20218;-72
2021/10/21 08:38:56;;;;;;;12.75;1.40;;;;;;;;;;5021482;28;20185;-69
2021/10/21 08:41:23;;;;;;;11.20;1.48;;;;;;;;;;5024574;28;20312;-69
2021/10/21 08:43:48;;;;;;;10.23;2.03;;;;;;;;;;5014558;28;20288;-70
2021/10/21 08:46:19;;;;;;;12.90;1.55;;;;;;;;;;5022902;28;20285;-72
2021/10/21 08:48:46;;;;;;;13.45;1.95;;;;;;;;;;5018188;28;20267;-71
2021/10/21 08:51:12;;;;;;;14.77;1.98;;;;;;;;;;5025228;28;20273;-75
2021/10/21 08:53:37;;;;;;;14.57;2.58;;;;;;;;;;5013145;28;20297;-71
2021/10/21 08:56:04;;;;;;;11.65;1.80;;;;;;;;;;5027880;28;20182;-72
2021/10/21 08:58:31;;;;;;;12.80;1.60;;;;;;;;;;5016917;28;20539;-74
2021/10/21 09:01:08;;;;;;;12.07;1.55;;;;;;;;;;5018126;28;20234;-69
2021/10/21 09:08:51;;;;;;;13.00;1.75;;;;;;;;;;5012347;28;20640;-74
2021/10/21 09:11:21;;;;;;;14.02;2.03;;;;;;;;;;5019960;28;20256;-74
2021/10/21 09:13:47;;;;;;;13.35;1.83;;;;;;;;;;5011097;28;20194;-74
2021/10/21 09:16:19;;;;;;;6.50;1.38;;;;;;;;;;5024085;28;20221;-72
2021/10/21 09:18:46;;;;;;;9.95;1.85;;;;;;;;;;5015545;28;20653;-73
2021/10/21 09:21:32;;;;;;;5.45;1.45;;;;;;;;;;5024470;28;20188;-72
2021/10/21 09:24:29;;;;;;;11.90;1.92;;;;;;;;;;4661931;28;10000303;-70
2021/10/21 09:26:58;;;;;;;19.27;2.30;;;;;;;;;;5019739;28;20212;-68
2021/10/21 09:29:24;;;;;;;13.48;1.80;;;;;;;;;;5012790;28;20264;-69
2021/10/21 09:32:17;;;;;;;12.35;2.33;;;;;;;;;;5016065;28;20186;-70
2021/10/21 09:34:48;;;;;;;13.40;2.47;;;;;;;;;;5014326;28;20186;-72
2021/10/21 09:37:22;;;;;;;11.48;2.08;;;;;;;;;;5019089;28;20224;-75
2021/10/21 09:39:56;;;;;;;10.25;2.28;;;;;;;;;;5010882;28;20685;-72
2021/10/21 09:42:29;;;;;;;16.17;2.03;;;;;;;;;;5020266;28;20186;-72
2021/10/21 09:45:20;;;;;;;18.42;2.10;;;;;;;;;;5010204;28;21094;-70
2021/10/21 09:47:51;;;;;;;12.70;2.38;;;;;;;;;;5020485;28;20694;-70
2021/10/21 09:50:23;;;;;;;11.80;1.77;;;;;;;;;;5011581;28;20669;-70
2021/10/21 09:53:08;;;;;;;14.63;1.95;;;;;;;;;;5018722;28;20178;-71
2021/10/21 09:55:37;;;;;;;9.70;1.50;;;;;;;;;;5006564;28;20186;-71
2021/10/21 09:58:08;;;;;;;10.25;1.75;;;;;;;;;;5019784;28;20297;-75
2021/10/21 10:00:35;;;;;;;9.57;2.15;;;;;;;;;;5010402;28;20197;-70
2021/10/21 10:03:11;;;;;;;8.52;2.00;;;;;;;;;;5024516;28;20284;-70
2021/10/21 10:05:41;;;;;;;15.57;2.40;;;;;;;;;;5012538;28;20201;-69
2021/10/21 10:08:10;;;;;;;11.60;1.88;;;;;;;;;;5016737;28;20667;-72
2021/10/21 10:10:37;;;;;;;12.25;2.22;;;;;;;;;;5020141;28;20182;-73
2021/10/21 10:13:03;;;;;;;14.40;2.30;;;;;;;;;;5011044;28;20254;-69
2021/10/21 10:15:29;;;;;;;12.07;1.75;;;;;;;;;;5012873;28;20190;-72
2021/10/21 10:17:56;;;;;;;16.35;2.85;;;;;;;;;;5009388;28;20202;-74
2021/10/21 10:20:26;;;;;;;10.50;1.85;;;;;;;;;;5019227;28;20174;-75
2021/10/21 10:22:52;;;;;;;11.02;1.52;;;;;;;;;;5013078;28;20202;-69
2021/10/21 10:25:19;;;;;;;9.75;1.65;;;;;;;;;;5016634;28;20348;-72
2021/10/21 10:28:00;;;;;;;9.30;1.67;;;;;;;;;;5011256;28;20213;-70
2021/10/21 10:30:46;;;;;;;7.22;1.65;;;;;;;;;;5017052;28;20206;-73
2021/10/21 10:33:13;;;;;;;7.63;1.35;;;;;;;;;;5007484;28;20204;-69
2021/10/21 10:35:41;;;;;;;9.30;1.20;;;;;;;;;;5018588;28;20178;-74
2021/10/21 10:38:09;;;;;;;9.20;1.10;;;;;;;;;;5009811;28;20221;-74
2021/10/21 10:40:45;;;;;;;6.20;0.90;;;;;;;;;;5019847;28;20206;-73
2021/10/21 10:43:13;;;;;;;5.28;0.88;;;;;;;;;;5010181;28;20194;-75
2021/10/21 10:45:45;;;;;;;4.75;0.88;;;;;;;;;;5021503;28;20181;-71
2021/10/21 10:48:11;;;;;;;5.97;0.80;;;;;;;;;;5011097;28;20230;-71
2021/10/21 10:50:42;;;;;;;6.28;1.30;;;;;;;;;;5020415;28;20186;-73
2021/10/21 10:53:09;;;;;;;6.22;1.13;;;;;;;;;;5019113;28;20446;-69
2021/10/21 10:55:41;;;;;;;5.07;0.80;;;;;;;;;;5020806;28;20198;-76
2021/10/21 10:58:14;;;;;;;7.93;1.33;;;;;;;;;;5022420;28;20530;-75
2021/10/21 11:00:48;;;;;;;7.05;0.98;;;;;;;;;;5017495;28;20277;-76
2021/10/21 11:03:29;;;;;;;6.03;0.90;;;;;;;;;;5025901;28;20309;-72
2021/10/21 11:05:56;;;;;;;7.35;1.15;;;;;;;;;;5014713;28;20250;-72
2021/10/21 11:08:53;;;;;;;5.47;1.10;;;;;;;;;;5027444;28;20308;-75
2021/10/21 11:11:39;;;;;;;6.50;0.77;;;;;;;;;;5016773;28;20284;-73
2021/10/21 11:14:10;;;;;;;5.03;0.70;;;;;;;;;;5022427;28;20629;-72
2021/10/21 11:16:43;;;;;;;8.25;1.25;;;;;;;;;;5017911;28;20232;-76
2021/10/21 11:19:13;;;;;;;7.97;1.00;;;;;;;;;;5027169;28;20608;-78
2021/10/21 11:21:45;;;;;;;3.42;0.30;;;;;;;;;;5018569;28;20189;-78
2021/10/21 11:24:10;;;;;;;2.85;0.30;;;;;;;;;;5028467;28;20204;-78
2021/10/21 11:26:36;;;;;;;3.05;0.40;;;;;;;;;;5019575;28;20194;-75
2021/10/21 11:29:02;;;;;;;2.88;0.43;;;;;;;;;;5023327;28;20332;-76
2021/10/21 11:31:29;;;;;;;4.53;0.90;;;;;;;;;;4996534;28;20198;-74
2021/10/21 11:33:55;;;;;;;4.05;0.77;;;;;;;;;;5026501;28;20204;-75
2021/10/21 11:36:20;;;;;;;2.07;0.40;;;;;;;;;;5015502;28;20181;-76
2021/10/21 11:39:06;;;;;;;2.50;0.40;;;;;;;;;;5024895;28;20205;-74
2021/10/21 11:41:31;;;;;;;5.87;0.50;;;;;;;;;;5015067;28;20198;-73
2021/10/21 11:43:58;;;;;;;2.63;0.40;;;;;;;;;;5025328;28;20196;-74
2021/10/21 11:46:23;;;;;;;3.13;0.68;;;;;;;;;;5015951;28;23273;-73
2021/10/21 11:48:55;;;;;;;4.78;0.45;;;;;;;;;;5020828;28;21313;-75
2021/10/21 11:51:27;;;;;;;4.35;0.55;;;;;;;;;;5014811;28;20253;-78
2021/10/21 11:53:56;;;;;;;4.95;0.70;;;;;;;;;;5019173;28;20227;-73
2021/10/21 11:56:24;;;;;;;5.93;0.90;;;;;;;;;;5026427;28;20202;-75
2021/10/21 11:58:50;;;;;;;5.97;0.77;;;;;;;;;;5016077;28;20493;-74
2021/10/21 12:01:22;;;;;;;4.60;0.70;;;;;;;;;;5023738;28;20233;-73
2021/10/21 12:03:49;;;;;;;4.72;0.85;;;;;;;;;;5014597;28;20212;-72
2021/10/21 12:06:16;;;;;;;2.88;0.70;;;;;;;;;;5026373;28;20749;-70
2021/10/21 12:08:50;;;;;;;4.97;0.70;;;;;;;;;;5017485;28;20332;-72
2021/10/21 12:11:20;;;;;;;4.15;0.65;;;;;;;;;;5023344;28;20268;-71
2021/10/21 12:13:45;;;;;;;5.43;0.80;;;;;;;;;;5011282;28;20300;-71
2021/10/21 12:16:17;;;;;;;5.22;0.90;;;;;;;;;;4331629;28;10000816;-70
2021/10/21 12:18:42;;;;;;;8.80;0.80;;;;;;;;;;5015969;28;20208;-73
2021/10/21 12:21:07;;;;;;;9.20;0.95;;;;;;;;;;5022287;28;20186;-75
2021/10/21 12:23:35;;;;;;;6.65;0.80;;;;;;;;;;5015345;28;20419;-76
2021/10/21 12:26:04;;;;;;;5.13;0.57;;;;;;;;;;5022849;28;20549;-73
2021/10/21 12:28:47;;;;;;;4.07;0.77;;;;;;;;;;5015912;28;20217;-76
2021/10/21 12:31:16;;;;;;;3.13;0.43;;;;;;;;;;5021602;28;20265;-76
2021/10/21 12:33:54;;;;;;;5.97;0.63;;;;;;;;;;5015828;28;20190;-75
2021/10/21 12:36:22;;;;;;;3.87;0.50;;;;;;;;;;5023615;28;20656;-76
2021/10/21 12:38:57;;;;;;;3.57;0.60;;;;;;;;;;5018608;28;20186;-73
2021/10/21 12:41:23;;;;;;;3.40;0.70;;;;;;;;;;5018467;28;20200;-72
2021/10/21 12:44:05;;;;;;;3.30;0.57;;;;;;;;;;5024587;28;20272;-72
2021/10/21 12:46:32;;;;;;;5.80;0.60;;;;;;;;;;5020089;28;20190;-74
2021/10/21 12:49:12;;;;;;;5.27;0.67;;;;;;;;;;5025031;28;20209;-73
2021/10/21 12:51:41;;;;;;;4.20;1.13;;;;;;;;;;5016682;28;20183;-72
2021/10/21 12:54:21;;;;;;;6.13;1.10;;;;;;;;;;5020675;28;20197;-72
2021/10/21 12:57:00;;;;;;;8.50;0.93;;;;;;;;;;5015316;28;20217;-71
2021/10/21 12:59:31;;;;;;;4.13;1.00;;;;;;;;;;5034080;28;20243;-71
2021/10/21 13:02:00;;;;;;;6.70;0.90;;;;;;;;;;5013188;28;20217;-72
2021/10/21 13:04:49;;;;;;;3.13;0.70;;;;;;;;;;5019162;28;20177;-71
2021/10/21 13:07:24;;;;;;;5.13;0.70;;;;;;;;;;5016997;28;20182;-71
2021/10/21 13:09:50;;;;;;;6.83;0.93;;;;;;;;;;5024522;28;20795;-71
2021/10/21 13:12:18;;;;;;;5.20;0.93;;;;;;;;;;5013255;28;20232;-71
2021/10/21 13:14:45;;;;;;;3.83;0.70;;;;;;;;;;5021211;28;20316;-71
2021/10/21 13:17:10;;;;;;;5.70;1.70;;;;;;;;;;5013575;28;20220;-71
2021/10/21 13:19:37;;;;;;;4.47;0.80;;;;;;;;;;5021784;28;20557;-71
2021/10/21 13:22:03;;;;;;;6.50;1.33;;;;;;;;;;5014955;28;20190;-72
2021/10/21 13:24:29;;;;;;;6.17;1.03;;;;;;;;;;5019725;28;20605;-71
2021/10/21 13:26:54;;;;;;;6.53;1.07;;;;;;;;;;5013430;28;20277;-71
2021/10/21 13:29:19;;;;;;;8.60;0.90;;;;;;;;;;5022083;28;20210;-73
2021/10/21 13:31:45;;;;;;;6.45;1.23;;;;;;;;;;5011412;28;20234;-71
2021/10/21 13:34:11;;;;;;;7.78;1.15;;;;;;;;;;5021225;28;20178;-71
2021/10/21 13:36:36;;;;;;;7.88;1.75;;;;;;;;;;5020556;28;20197;-72
2021/10/21 13:39:04;;;;;;;6.88;0.93;;;;;;;;;;5014449;28;20196;-72
2021/10/21 13:41:29;;;;;;;8.68;1.48;;;;;;;;;;5022013;28;20217;-73
2021/10/21 13:43:56;;;;;;;11.13;1.35;;;;;;;;;;5014009;28;20232;-72
2021/10/21 13:46:22;;;;;;;5.50;1.10;;;;;;;;;;5020703;28;20185;-71
2021/10/21 13:48:48;;;;;;;6.68;1.00;;;;;;;;;;5014350;28;20206;-73
2021/10/21 13:51:13;;;;;;;9.23;1.10;;;;;;;;;;5021791;28;20212;-71
2021/10/21 13:53:39;;;;;;;6.55;1.00;;;;;;;;;;5013837;28;20182;-72
2021/10/21 13:56:06;;;;;;;8.68;1.42;;;;;;;;;;5019616;28;20221;-71
2021/10/21 13:58:32;;;;;;;8.82;1.83;;;;;;;;;;5009644;28;20193;-71
2021/10/21 14:00:57;;;;;;;7.30;1.27;;;;;;;;;;5018584;28;20189;-73
2021/10/21 14:03:22;;;;;;;7.22;1.20;;;;;;;;;;5009118;28;20194;-75
2021/10/21 14:05:48;;;;;;;10.55;1.50;;;;;;;;;;5016416;28;20212;-72
2021/10/21 14:08:14;;;;;;;13.52;1.55;;;;;;;;;;5012465;28;20280;-72
2021/10/21 14:10:41;;;;;;;8.40;1.02;;;;;;;;;;5019150;28;20228;-71
2021/10/21 14:13:06;;;;;;;8.43;1.10;;;;;;;;;;5015839;28;20198;-71
2021/10/21 14:15:32;;;;;;;5.63;1.20;;;;;;;;;;5008351;28;21935;-71
2021/10/21 14:17:58;;;;;;;9.80;1.30;;;;;;;;;;5022104;28;20200;-70
2021/10/21 14:20:23;;;;;;;10.45;1.60;;;;;;;;;;5009531;28;20182;-71
2021/10/21 14:22:49;;;;;;;10.95;1.40;;;;;;;;;;5018713;28;20186;-71
2021/10/21 14:25:14;;;;;;;12.75;1.80;;;;;;;;;;5010744;28;20683;-72
2021/10/21 14:27:39;;;;;;;8.00;1.43;;;;;;;;;;5019120;28;20833;-71
2021/10/21 14:30:07;;;;;;;10.82;1.63;;;;;;;;;;5004956;28;20231;-70
2021/10/21 14:32:33;;;;;;;15.27;2.03;;;;;;;;;;5015762;28;20205;-71
2021/10/21 14:34:59;;;;;;;11.83;1.70;;;;;;;;;;5008140;28;20251;-71
2021/10/21 14:37:29;;;;;;;9.47;2.53;;;;;;;;;;5018335;28;20874;-71
2021/10/21 14:39:54;;;;;;;11.63;2.47;;;;;;;;;;5010181;28;20681;-71
2021/10/21 14:42:20;;;;;;;13.77;2.13;;;;;;;;;;5017774;28;20297;-71
2021/10/21 14:44:46;;;;;;;11.53;1.97;;;;;;;;;;5017131;28;20185;-71